Latest Weather Observations for Hindmarsh Island

IDS60801

Issued at 2:35 pm CST Wednesday 23 July 2014 (issued every 30 minutes, with the page automatically refreshed every 10 minutes)

About weather observations | Map of weather stations | Latest weather observations for SA | Other Formats
Station Details ID: 023894 Name: HINDMARSH ISLAND AWS Lat: -35.52 Lon: 138.82 Height: 11.0 m
Data from the previous 72 hours. | See also: Recent months at Hindmarsh Island
Date/Time
CST
Temp
°C
App
Temp
°C
Dew
Point
Rel
Hum
%
Delta-T
°C
Wind Press
QNH
hPa
Press
MSL
hPa
Rain
since 9 am
mm
Dir
 
Spd
km/h
Gust
km/h
Spd
kts
Gust
kts
23/02:30pm 10.1 6.1 6.8 80 1.6 NE 17 19 9 10 1014.0 - 1.0
23/02:00pm 10.5 6.8 6.3 75 2.0 NNE 15 19 8 10 1014.4 - 0.2
23/01:30pm 11.2 6.0 5.3 67 2.7 NNE 22 28 12 15 1014.3 - 0.0
23/01:00pm 11.2 5.2 5.1 66 2.8 NNE 26 33 14 18 1014.6 - 0.0
23/12:30pm 11.4 4.4 4.2 61 3.2 NE 30 35 16 19 1015.2 - 0.0
23/12:00pm 11.2 4.6 4.4 63 3.1 NNE 28 35 15 19 1016.1 1016.2 0.0
23/11:30am 11.0 4.4 4.0 62 3.1 NNE 28 35 15 19 1016.7 - 0.0
23/11:00am 10.0 2.8 3.1 62 3.0 NE 30 37 16 20 1017.3 - 0.0
23/10:30am 9.5 2.6 2.8 63 2.9 NNE 28 35 15 19 1017.9 - 0.0
23/10:00am 9.1 2.3 2.9 65 2.6 NE 28 41 15 22 1018.0 - 0.0
23/09:30am 9.4 2.2 2.9 64 2.8 NNE 30 37 16 20 1018.1 - 0.0
23/09:00am 7.8 1.3 2.9 71 2.1 NNE 26 35 14 19 1018.2 1018.2 0.0
23/08:30am 7.5 0.3 2.8 72 2.0 NNE 30 37 16 20 1018.2 - 0.0
23/08:00am 7.5 -0.1 2.8 72 2.0 NE 32 39 17 21 1018.3 - 0.0
23/07:30am 7.4 0.2 3.1 74 1.8 NE 30 37 16 20 1018.4 - 0.0
23/07:00am 7.4 -0.2 2.7 72 2.0 NE 32 41 17 22 1018.5 - 0.0
23/06:30am 7.5 0.7 3.0 73 1.9 NE 28 33 15 18 1018.5 - 0.0
23/06:00am 7.8 1.0 3.3 73 1.9 NE 28 33 15 18 1018.6 1018.5 0.0
23/05:30am 8.0 1.3 3.5 73 1.9 NE 28 33 15 18 1018.4 - 0.0
23/05:00am 8.1 1.3 3.2 71 2.1 NE 28 35 15 19 1018.5 - 0.0
23/04:30am 8.4 1.3 3.5 71 2.1 NE 30 39 16 21 1018.7 - 0.0
23/04:00am 8.5 1.4 3.6 71 2.1 NE 30 35 16 19 1018.9 - 0.0
23/03:30am 8.5 1.8 3.4 70 2.2 NE 28 33 15 18 1019.2 - 0.0
23/03:00am 8.6 1.9 3.4 70 2.2 NE 28 33 15 18 1019.3 1019.3 0.0
23/02:30am 8.7 2.0 3.7 71 2.2 NE 28 33 15 18 1019.8 - 0.0
23/02:00am 8.9 2.2 3.9 71 2.2 NE 28 32 15 17 1020.0 - 0.0
23/01:30am 9.0 3.5 4.2 72 2.1 NE 22 30 12 16 1020.0 - 0.0
23/01:00am 8.8 3.3 4.0 72 2.1 NE 22 28 12 15 1020.1 - 0.0
23/12:30am 8.7 2.9 4.3 74 1.9 NE 24 30 13 16 1020.5 - 0.0
23/12:00am 8.4 3.0 4.4 76 1.7 NE 22 26 12 14 1020.7 1020.7 0.0
 
Date/Time
CST
Temp
°C
App
Temp
°C
Dew
Point
Rel
Hum
%
Delta-T
°C
Wind Press
QNH
hPa
Press
MSL
hPa
Rain
since 9 am
mm
Dir
 
Spd
km/h
Gust
km/h
Spd
kts
Gust
kts
22/11:30pm 8.3 3.4 4.9 79 1.5 NE 20 24 11 13 1021.1 - 0.0
22/11:00pm 8.0 3.5 4.2 77 1.7 NE 17 20 9 11 1021.1 - 0.0
22/10:30pm 8.6 3.9 5.0 78 1.6 NNE 19 20 10 11 1021.2 - 0.0
22/10:00pm 9.1 4.3 4.9 75 1.9 NNE 19 22 10 12 1021.3 - 0.0
22/09:30pm 9.5 4.7 4.9 73 2.1 NNE 19 22 10 12 1021.6 - 0.0
22/09:00pm 10.0 5.1 5.2 72 2.2 NNE 20 24 11 13 1021.6 1021.6 0.0
22/08:30pm 9.6 4.9 5.0 73 2.1 NNE 19 22 10 12 1021.5 - 0.0
22/08:00pm 10.0 5.7 5.4 73 2.1 NNE 17 20 9 11 1021.6 - 0.0
22/07:30pm 10.2 6.4 5.8 74 2.0 NNE 15 19 8 10 1021.7 - 0.0
22/07:00pm 10.9 6.7 5.9 71 2.3 NNE 17 20 9 11 1021.6 - 0.0
22/06:30pm 10.9 6.4 5.9 71 2.3 NE 19 22 10 12 1021.3 - 0.0
22/06:00pm 10.6 6.3 5.4 70 2.4 NE 17 20 9 11 1021.4 1021.4 0.0
22/05:30pm 11.7 7.5 5.8 67 2.7 NE 17 20 9 11 1021.3 - 0.0
22/05:00pm 13.4 9.3 6.0 61 3.5 ENE 17 22 9 12 1020.7 - 0.0
22/04:30pm 15.0 10.5 6.0 55 4.3 ENE 19 24 10 13 1020.7 - 0.0
22/04:00pm 15.8 11.3 6.3 53 4.6 ENE 19 26 10 14 1021.0 - 0.0
22/03:30pm 16.1 10.6 5.7 50 5.0 ENE 24 26 13 14 1021.1 - 0.0
22/03:00pm 16.3 10.9 6.2 51 4.9 ENE 24 28 13 15 1021.1 1021.1 0.0
22/02:30pm 16.2 11.2 6.6 53 4.7 ENE 22 26 12 14 1021.2 - 0.0
22/02:00pm 16.0 12.2 7.7 58 4.2 E 17 20 9 11 1021.5 - 0.0
22/01:30pm 15.7 12.3 7.7 59 4.0 NE 15 22 8 12 1021.7 - 0.0
22/01:00pm 14.7 11.0 8.0 64 3.3 NE 17 20 9 11 1022.0 - 0.0
22/12:30pm 14.4 11.2 8.4 67 3.0 NNE 15 19 8 10 1022.6 - 0.0
22/12:00pm 13.2 9.0 7.6 69 2.7 NNE 19 22 10 12 1023.1 1023.1 0.0
22/11:30am 12.5 9.0 7.0 69 2.6 NNE 15 20 8 11 1023.7 - 0.0
22/11:00am 11.8 8.3 7.1 73 2.3 NNE 15 19 8 10 1024.1 - 0.0
22/10:30am 10.8 7.1 6.4 74 2.1 NNE 15 20 8 11 1024.3 - 0.0
22/10:00am 9.7 6.3 5.9 77 1.7 NNE 13 17 7 9 1024.5 - 0.0
22/09:30am 8.1 4.9 5.0 81 1.4 NNE 11 13 6 7 1024.6 - 0.0
22/09:00am 7.0 4.1 4.5 84 1.1 ENE 9 13 5 7 1024.5 1024.5 0.0
22/08:30am 6.4 3.4 4.2 86 0.9 NE 9 13 5 7 1024.3 - 0.0
22/08:00am 5.3 2.7 3.3 87 0.8 ENE 6 9 3 5 1024.1 - 0.0
22/07:30am 5.1 1.9 3.1 87 0.8 NE 9 13 5 7 1024.1 - 0.0
22/07:00am 5.6 3.5 3.8 88 0.8 NNE 4 9 2 5 1023.8 - 0.0
22/06:30am 5.8 2.8 4.0 88 0.8 NE 9 15 5 8 1023.4 - 0.0
22/06:00am 5.2 1.3 3.2 87 0.8 NNE 13 17 7 9 1023.1 1023.1 0.0
22/05:30am 5.3 2.5 3.3 87 0.8 NNE 7 11 4 6 1023.1 - 0.0
22/05:00am 5.3 2.1 3.2 86 0.9 NNE 9 13 5 7 1023.0 - 0.0
22/04:30am 5.5 3.3 3.2 85 1.0 NNE 4 11 2 6 1023.0 - 0.0
22/04:00am 5.8 1.2 3.6 86 0.9 N 17 19 9 10 1022.7 - 0.0
22/03:30am 6.1 1.5 3.8 85 1.0 N 17 20 9 11 1022.7 - 0.0
22/03:00am 6.0 1.5 4.2 88 0.8 NNE 17 20 9 11 1022.8 1022.8 0.0
22/02:30am 5.5 2.0 3.3 86 0.9 NNE 11 15 6 8 1022.8 - 0.0
22/02:00am 5.7 3.5 3.5 86 0.9 NE 4 7 2 4 1022.9 - 0.0
22/01:30am 6.6 2.9 4.4 86 0.9 N 13 15 7 8 1022.9 - 0.0
22/01:00am 6.7 3.0 4.5 86 1.0 N 13 15 7 8 1022.9 - 0.0
22/12:30am 6.8 3.9 4.6 86 1.0 N 9 11 5 6 1023.0 - 0.0
22/12:00am 7.4 3.9 5.4 87 0.9 N 13 15 7 8 1023.1 1023.1 0.0
 
Date/Time
CST
Temp
°C
App
Temp
°C
Dew
Point
Rel
Hum
%
Delta-T
°C
Wind Press
QNH
hPa
Press
MSL
hPa
Rain
since 9 am
mm
Dir
 
Spd
km/h
Gust
km/h
Spd
kts
Gust
kts
21/11:30pm 7.7 4.6 5.7 87 0.9 N 11 15 6 8 1023.1 - 0.0
21/11:00pm 8.0 4.6 5.8 86 1.0 NNE 13 17 7 9 1023.0 - 0.0
21/10:30pm 7.6 3.8 5.6 87 0.9 NE 15 17 8 9 1023.1 - 0.0
21/10:00pm 7.4 4.2 5.0 85 1.1 NE 11 15 6 8 1023.1 - 0.0
21/09:30pm 7.4 4.5 4.9 84 1.1 ENE 9 11 5 6 1023.0 - 0.0
21/09:00pm 8.8 6.5 5.9 82 1.3 NNE 7 9 4 5 1022.8 1022.8 0.0
21/08:30pm 9.6 8.1 6.7 82 1.4 NNE 4 7 2 4 1022.7 - 0.0
21/08:00pm 9.8 7.7 6.5 80 1.5 NNE 7 9 4 5 1022.6 - 0.0
21/07:30pm 10.0 7.5 6.7 80 1.5 NE 9 11 5 6 1022.4 - 0.0
21/07:00pm 10.3 8.2 6.8 79 1.6 ENE 7 7 4 4 1022.2 - 0.0
21/06:30pm 11.0 10.0 7.3 78 1.8 E 2 6 1 3 1022.1 - 0.0
21/06:00pm 10.8 8.8 6.9 77 1.8 E 7 7 4 4 1022.0 1022.0 0.0
21/05:30pm 11.1 8.7 7.2 77 1.9 E 9 11 5 6 1021.7 - 0.0
21/05:00pm 11.5 9.1 7.0 74 2.1 ENE 9 11 5 6 1021.3 - 0.0
21/04:30pm 12.9 9.0 7.1 68 2.8 ENE 17 22 9 12 1021.0 - 0.0
21/04:00pm 14.0 9.6 7.3 64 3.3 NE 20 26 11 14 1020.8 - 0.0
21/03:30pm 14.6 10.4 7.6 63 3.5 ENE 19 22 10 12 1020.7 - 0.0
21/03:00pm 14.5 10.9 8.2 66 3.1 E 17 20 9 11 1020.6 1020.6 0.0
21/02:30pm 14.4 11.0 7.7 64 3.3 ENE 15 19 8 10 1020.7 - 0.0
21/02:00pm 14.9 12.8 8.2 64 3.4 E 9 13 5 7 1020.8 - 0.0
21/01:30pm 13.8 11.2 5.9 59 3.7 NNE 9 11 5 6 1021.1 - 0.0
21/01:00pm 13.5 10.4 7.1 65 3.1 NE 13 17 7 9 1021.4 - 0.0
21/12:30pm 13.3 10.0 8.0 70 2.6 NE 15 20 8 11 1021.8 - 0.0
21/12:00pm 11.8 8.3 7.3 74 2.2 NE 15 20 8 11 1022.2 1022.3 0.0
21/11:30am 11.1 7.1 6.8 75 2.0 NNE 17 20 9 11 1022.6 - 0.0
21/11:00am 10.5 5.9 6.5 76 1.9 NNE 20 24 11 13 1022.9 - 0.0
21/10:30am 9.4 4.9 6.1 80 1.5 NNE 19 26 10 14 1023.0 - 0.0
21/10:00am 8.5 4.3 5.6 82 1.3 NNE 17 22 9 12 1023.0 - 0.0
21/09:30am 7.8 2.5 5.1 83 1.2 NNE 22 28 12 15 1023.0 - 0.0
21/09:00am 7.5 2.5 4.8 83 1.2 NNE 20 28 11 15 1023.0 1023.0 0.0
21/08:30am 7.2 2.2 4.7 84 1.1 NE 20 24 11 13 1022.9 - 0.0
21/08:00am 6.7 1.7 4.5 86 1.0 NE 20 24 11 13 1022.8 - 0.0
21/07:30am 6.6 1.7 4.3 85 1.0 NNE 19 22 10 12 1022.9 - 0.0
21/07:00am 7.0 2.2 4.7 85 1.0 NNE 19 22 10 12 1022.8 - 0.0
21/06:30am 6.9 2.1 4.7 86 1.0 NE 19 22 10 12 1022.6 - 0.0
21/06:00am 6.7 1.7 4.5 86 0.9 NE 20 24 11 13 1022.5 1022.5 0.0
21/05:30am 6.7 1.7 4.4 85 1.0 NE 20 24 11 13 1022.4 - 0.0
21/05:00am 7.3 2.5 4.8 84 1.1 NNE 19 24 10 13 1022.5 - 0.0
21/04:30am 7.4 2.5 4.9 84 1.1 NNE 20 24 11 13 1022.5 - 0.0
21/04:00am 7.1 2.7 4.6 84 1.1 NE 17 20 9 11 1022.4 - 0.0
21/03:30am 7.1 2.3 4.8 85 1.0 NE 19 24 10 13 1022.4 - 0.0
21/03:00am 7.1 2.3 4.6 84 1.1 NE 19 20 10 11 1022.6 1022.6 0.0
21/02:30am 7.3 2.9 4.8 84 1.1 NE 17 19 9 10 1022.6 - 0.0
21/02:00am 7.4 3.4 4.9 84 1.1 NE 15 17 8 9 1022.7 - 0.0
21/01:30am 7.7 3.8 5.2 84 1.1 NE 15 19 8 10 1022.9 - 0.0
21/01:00am 8.2 3.6 5.5 83 1.2 NE 19 20 10 11 1023.2 - 0.0
21/12:30am 8.4 5.3 5.7 83 1.2 NNE 11 15 6 8 1023.6 - 0.0
21/12:00am 7.7 3.5 5.5 86 1.0 NE 17 19 9 10 1023.6 1023.6 0.0
 
Date/Time
CST
Temp
°C
App
Temp
°C
Dew
Point
Rel
Hum
%
Delta-T
°C
Wind Press
QNH
hPa
Press
MSL
hPa
Rain
since 9 am
mm
Dir
 
Spd
km/h
Gust
km/h
Spd
kts
Gust
kts
20/11:30pm 7.4 3.8 5.2 86 1.0 NE 13 15 7 8 1024.0 - 0.0
20/11:00pm 7.4 3.4 5.0 85 1.1 NE 15 17 8 9 1024.0 - 0.0
20/10:30pm 8.4 4.6 6.0 85 1.1 NE 15 17 8 9 1024.1 - 0.0
20/10:00pm 8.4 4.6 5.9 84 1.1 NE 15 19 8 10 1024.3 - 0.0
20/09:30pm 8.7 4.9 6.0 83 1.2 NNE 15 19 8 10 1024.4 - 0.0
20/09:00pm 8.9 5.1 6.0 82 1.3 NNE 15 20 8 11 1024.4 1024.5 0.0
20/08:30pm 9.0 5.3 6.1 82 1.3 NNE 15 19 8 10 1024.4 - 0.0
20/08:00pm 9.0 4.8 5.9 81 1.4 NE 17 20 9 11 1024.3 - 0.0
20/07:30pm 9.5 5.4 6.2 80 1.5 NE 17 22 9 12 1024.6 - 0.0
20/07:00pm 9.5 5.1 6.4 81 1.4 NE 19 22 10 12 1024.7 - 0.0
20/06:30pm 9.8 5.8 6.5 80 1.5 NE 17 20 9 11 1024.5 - 0.0
20/06:00pm 9.4 5.3 6.1 80 1.5 NE 17 19 9 10 1024.4 1024.4 0.0
20/05:30pm 10.2 6.5 6.4 77 1.8 NNE 15 17 8 9 1024.4 - 0.0
20/05:00pm 10.8 7.2 6.7 76 1.9 NNE 15 20 8 11 1024.1 - 0.0
20/04:30pm 11.4 7.9 7.1 75 2.1 NE 15 19 8 10 1024.1 - 0.0
20/04:00pm 11.6 7.3 6.9 73 2.2 ENE 19 20 10 11 1024.0 - 0.0
20/03:30pm 12.0 7.6 6.7 70 2.5 NE 19 26 10 14 1024.0 - 0.0
20/03:00pm 12.6 8.0 6.6 67 2.8 ENE 20 28 11 15 1024.0 1024.0 0.0

Other Formats:

Comma delimited format used in spreadsheet applications
http://www.bom.gov.au/fwo/IDS60801/IDS60801.94677.axf

JavaScript Object Notation format (JSON) in row-major order
http://www.bom.gov.au/fwo/IDS60801/IDS60801.94677.json